createdAt,value
2017-04-13T00:00:10.756Z,1001.97
2017-04-13T00:01:10.777Z,1001.95
2017-04-13T00:02:10.796Z,1001.9
2017-04-13T00:03:10.815Z,1001.99
2017-04-13T00:04:10.836Z,1001.9
2017-04-13T00:05:10.857Z,1001.94
2017-04-13T00:06:10.878Z,1001.95
2017-04-13T00:07:10.897Z,1001.93
2017-04-13T00:08:10.918Z,1001.97
2017-04-13T00:09:10.938Z,1001.89
2017-04-13T00:10:10.959Z,1001.9
2017-04-13T00:11:10.979Z,1001.9
2017-04-13T00:12:11.000Z,1001.95
2017-04-13T00:13:11.020Z,1001.94
2017-04-13T00:14:11.040Z,1001.97
2017-04-13T00:15:11.061Z,1001.92
2017-04-13T00:16:11.081Z,1001.94
2017-04-13T00:17:11.102Z,1001.94
2017-04-13T00:18:11.122Z,1001.95
2017-04-13T00:19:11.143Z,1001.9
2017-04-13T00:20:11.164Z,1001.92
2017-04-13T00:21:11.183Z,1001.93
2017-04-13T00:22:11.205Z,1001.9
2017-04-13T00:23:11.227Z,1001.91
2017-04-13T00:24:11.245Z,1001.88
2017-04-13T00:25:11.265Z,1001.83
2017-04-13T00:27:11.306Z,1001.83
2017-04-13T00:28:11.327Z,1001.84
2017-04-13T00:29:11.347Z,1001.87
2017-04-13T00:30:11.367Z,1001.86
2017-04-13T00:31:11.388Z,1001.8
2017-04-13T00:32:11.409Z,1001.84
2017-04-13T00:33:11.428Z,1001.81
2017-04-13T00:34:11.449Z,1001.84
2017-04-13T00:35:11.469Z,1001.78
2017-04-13T00:36:11.489Z,1001.82
2017-04-13T00:37:11.510Z,1001.87
2017-04-13T00:38:11.531Z,1001.8
2017-04-13T00:39:11.551Z,1001.84
2017-04-13T00:40:11.571Z,1001.89
2017-04-13T00:41:11.592Z,1001.93
2017-04-13T00:43:11.633Z,1001.93
2017-04-13T00:44:11.653Z,1001.97
2017-04-13T00:45:11.673Z,1001.99
2017-04-13T00:46:11.694Z,1002.03
2017-04-13T00:47:11.713Z,1002.03
2017-04-13T00:48:11.734Z,1002.09
2017-04-13T00:49:11.755Z,1002.07
2017-04-13T00:50:11.775Z,1002.06
2017-04-13T00:51:11.795Z,1002.17
2017-04-13T00:52:11.815Z,1002.21
2017-04-13T00:53:11.836Z,1002.28
2017-04-13T00:54:11.859Z,1002.18
2017-04-13T00:55:11.878Z,1002.09
2017-04-13T00:56:11.896Z,1002.12
2017-04-13T00:57:11.916Z,1002.19
2017-04-13T00:59:11.957Z,1002.15
2017-04-13T01:00:11.976Z,1002.21
2017-04-13T01:01:11.996Z,1002.17
2017-04-13T01:02:12.015Z,1002.19
2017-04-13T01:03:12.036Z,1002.15
2017-04-13T01:04:12.056Z,1002.14
2017-04-13T01:05:12.077Z,1002.15
2017-04-13T01:06:12.096Z,1002.19
2017-04-13T01:07:12.116Z,1002.17
2017-04-13T01:08:12.136Z,1002.16
2017-04-13T01:09:12.155Z,1002.17
2017-04-13T01:10:12.177Z,1002.21
2017-04-13T01:11:12.196Z,1002.25
2017-04-13T01:12:12.215Z,1002.28
2017-04-13T01:13:12.234Z,1002.26
2017-04-13T01:15:12.275Z,1002.27
2017-04-13T01:16:12.295Z,1002.31
2017-04-13T01:17:12.324Z,1002.36
2017-04-13T01:18:12.334Z,1002.27
2017-04-13T01:19:12.354Z,1002.2
2017-04-13T01:20:12.374Z,1002.22
2017-04-13T01:21:12.397Z,1002.23
2017-04-13T01:22:12.414Z,1002.2
2017-04-13T01:23:12.433Z,1002.21
2017-04-13T01:24:12.451Z,1002.19
2017-04-13T01:25:12.473Z,1002.25
2017-04-13T01:26:12.494Z,1002.19
2017-04-13T01:27:12.512Z,1002.2
2017-04-13T01:28:12.532Z,1002.21
2017-04-13T01:30:12.572Z,1002.18
2017-04-13T01:31:12.591Z,1002.22
2017-04-13T01:32:12.611Z,1002.25
2017-04-13T01:33:12.632Z,1002.19
2017-04-13T01:34:12.656Z,1002.24
2017-04-13T01:35:12.671Z,1002.23
2017-04-13T01:36:12.690Z,1002.24
2017-04-13T01:37:12.710Z,1002.27
2017-04-13T01:38:12.728Z,1002.27
2017-04-13T01:39:12.749Z,1002.21
2017-04-13T01:40:12.769Z,1002.19
2017-04-13T01:41:12.789Z,1002.23
2017-04-13T01:42:12.808Z,1002.24
2017-04-13T01:43:12.827Z,1002.24
2017-04-13T01:44:12.848Z,1002.22
2017-04-13T01:45:12.868Z,1002.19
2017-04-13T01:46:12.886Z,1002.22
2017-04-13T01:47:12.907Z,1002.18
2017-04-13T01:48:12.926Z,1002.19
2017-04-13T01:49:12.949Z,1002.19
2017-04-13T01:50:12.965Z,1002.19
2017-04-13T01:51:12.986Z,1002.2
2017-04-13T01:52:13.006Z,1002.16
2017-04-13T01:53:13.025Z,1002.17
2017-04-13T01:54:13.044Z,1002.2
2017-04-13T01:55:13.064Z,1002.22
2017-04-13T01:56:13.085Z,1002.19
2017-04-13T01:57:13.104Z,1002.17
2017-04-13T01:58:13.124Z,1002.16
2017-04-13T01:59:13.144Z,1002.14
2017-04-13T02:00:13.163Z,1002.12
2017-04-13T02:02:13.203Z,1002.14
2017-04-13T02:03:13.223Z,1002.14
2017-04-13T02:04:13.241Z,1002.09
2017-04-13T02:05:13.262Z,1002.12
2017-04-13T02:06:13.282Z,1002.11
2017-04-13T02:07:13.302Z,1002.1
2017-04-13T02:08:13.320Z,1002.11
2017-04-13T02:09:13.341Z,1002.09
2017-04-13T02:10:13.361Z,1002.15
2017-04-13T02:11:13.380Z,1002.09
2017-04-13T02:12:13.400Z,1002.17
2017-04-13T02:13:13.420Z,1002.11
2017-04-13T02:14:13.440Z,1002.14
2017-04-13T02:15:13.459Z,1002.09
2017-04-13T02:16:13.479Z,1002.1
2017-04-13T02:18:13.519Z,1002.09
2017-04-13T02:19:13.538Z,1002.1
2017-04-13T02:20:13.558Z,1002.13
2017-04-13T02:21:13.578Z,1002.1
2017-04-13T02:22:13.598Z,1002.14
2017-04-13T02:23:13.617Z,1002.12
2017-04-13T02:24:13.637Z,1002.16
2017-04-13T02:25:13.661Z,1002.08
2017-04-13T02:26:13.676Z,1002.13
2017-04-13T02:27:13.697Z,1002.1
2017-04-13T02:28:13.717Z,1002.11
2017-04-13T02:29:13.736Z,1002.08
2017-04-13T02:30:13.756Z,1002.16
2017-04-13T02:31:13.776Z,1002.07
2017-04-13T02:32:13.795Z,1002.05
2017-04-13T02:34:13.834Z,1002.11
2017-04-13T02:35:13.855Z,1002.05
2017-04-13T02:36:13.875Z,1002.15
2017-04-13T02:37:13.894Z,1002.09
2017-04-13T02:38:13.913Z,1002.11
2017-04-13T02:39:13.933Z,1002.14
2017-04-13T02:40:13.953Z,1002.09
2017-04-13T02:41:13.972Z,1002.1
2017-04-13T02:42:13.991Z,1002.07
2017-04-13T02:43:14.013Z,1002.05
2017-04-13T02:44:14.031Z,1002.03
2017-04-13T02:45:14.051Z,1002.09
2017-04-13T02:46:14.071Z,1002.07
2017-04-13T02:47:14.091Z,1002.05
2017-04-13T02:48:14.109Z,1002.1
2017-04-13T02:50:14.152Z,1002.06
2017-04-13T02:51:14.170Z,1002.1
2017-04-13T02:52:14.188Z,1002.08
2017-04-13T02:53:14.208Z,1002.13
2017-04-13T02:54:14.228Z,1002.07
2017-04-13T02:55:14.246Z,1002.14
2017-04-13T02:56:14.267Z,1002.04
2017-04-13T02:57:14.287Z,1002.14
2017-04-13T02:58:14.306Z,1002.15
2017-04-13T02:59:14.325Z,1002.14
2017-04-13T03:00:14.345Z,1002.18
2017-04-13T03:01:14.365Z,1002.13
2017-04-13T03:02:14.385Z,1002.13
2017-04-13T03:03:14.405Z,1002.13
2017-04-13T03:05:14.444Z,1002.16
2017-04-13T03:06:14.463Z,1002.14
2017-04-13T03:07:14.483Z,1002.15
2017-04-13T03:08:14.502Z,1002.17
2017-04-13T03:09:14.521Z,1002.18
2017-04-13T03:10:14.546Z,1002.18
2017-04-13T03:11:14.561Z,1002.17
2017-04-13T03:12:14.580Z,1002.18
2017-04-13T03:13:14.599Z,1002.17
2017-04-13T03:14:14.620Z,1002.19
2017-04-13T03:15:14.639Z,1002.21
2017-04-13T03:16:14.658Z,1002.15
2017-04-13T03:17:14.677Z,1002.15
2017-04-13T03:18:14.697Z,1002.13
2017-04-13T03:19:14.717Z,1002.16
2017-04-13T03:20:14.737Z,1002.11
2017-04-13T03:21:14.755Z,1002.14
2017-04-13T03:22:14.775Z,1002.18
2017-04-13T03:23:14.795Z,1002.12
2017-04-13T03:24:14.814Z,1002.12
2017-04-13T03:25:14.833Z,1002.11
2017-04-13T03:26:14.854Z,1002.12
2017-04-13T03:27:14.874Z,1002.09
2017-04-13T03:28:14.892Z,1002.1
2017-04-13T03:29:14.912Z,1002.11
2017-04-13T03:30:14.931Z,1002.09
2017-04-13T03:31:14.955Z,1002.06
2017-04-13T03:32:14.970Z,1002.09
2017-04-13T03:33:14.991Z,1002.07
2017-04-13T03:34:15.009Z,1002.11
2017-04-13T03:35:15.028Z,1002.14
2017-04-13T03:37:15.068Z,1002.08
2017-04-13T03:38:15.092Z,1002.09
2017-04-13T03:39:15.107Z,1002.05
2017-04-13T03:40:15.127Z,1002.04
2017-04-13T03:41:15.147Z,1002.07
2017-04-13T03:42:15.166Z,1002.02
2017-04-13T03:43:15.185Z,1002.06
2017-04-13T03:44:15.205Z,1002.05
2017-04-13T03:45:15.224Z,1001.99
2017-04-13T03:46:15.243Z,1002
2017-04-13T03:47:15.263Z,1002.03
2017-04-13T03:48:15.282Z,1002.08
2017-04-13T03:49:15.303Z,1002.08
2017-04-13T03:50:15.321Z,1002.04
2017-04-13T03:51:15.341Z,1002.06
2017-04-13T03:53:15.381Z,1001.99
2017-04-13T03:54:15.400Z,1002.06
2017-04-13T03:55:15.421Z,1002.02
2017-04-13T03:56:15.440Z,1002.12
2017-04-13T03:57:15.458Z,1002.05
2017-04-13T03:58:15.478Z,1002.08
2017-04-13T03:59:15.498Z,1002.1
2017-04-13T04:00:15.518Z,1002.12
2017-04-13T04:01:15.536Z,1002.13
2017-04-13T04:02:15.556Z,1002.12
2017-04-13T04:03:15.576Z,1002.12
2017-04-13T04:04:15.596Z,1002.11
2017-04-13T04:05:15.615Z,1002.19
2017-04-13T04:06:15.636Z,1002.16
2017-04-13T04:07:15.655Z,1002.14
2017-04-13T04:09:15.693Z,1002.14
2017-04-13T04:10:15.713Z,1002.16
2017-04-13T04:11:15.737Z,1002.2
2017-04-13T04:12:15.752Z,1002.16
2017-04-13T04:13:15.771Z,1002.19
2017-04-13T04:14:15.795Z,1002.21
2017-04-13T04:15:15.812Z,1002.14
2017-04-13T04:16:15.830Z,1002.22
2017-04-13T04:17:15.850Z,1002.24
2017-04-13T04:18:15.870Z,1002.23
2017-04-13T04:19:15.889Z,1002.24
2017-04-13T04:20:15.908Z,1002.33
2017-04-13T04:21:15.928Z,1002.24
2017-04-13T04:22:15.948Z,1002.23
2017-04-13T04:23:15.967Z,1002.28
2017-04-13T04:25:16.006Z,1002.21
2017-04-13T04:26:16.026Z,1002.19
2017-04-13T04:27:16.045Z,1002.25
2017-04-13T04:28:16.065Z,1002.27
2017-04-13T04:29:16.085Z,1002.28
2017-04-13T04:30:16.104Z,1002.22
2017-04-13T04:31:16.123Z,1002.27
2017-04-13T04:32:16.144Z,1002.26
2017-04-13T04:33:16.163Z,1002.23
2017-04-13T04:34:16.185Z,1002.3
2017-04-13T04:35:16.201Z,1002.32
2017-04-13T04:36:16.222Z,1002.33
2017-04-13T04:37:16.241Z,1002.41
2017-04-13T04:38:16.261Z,1002.42
2017-04-13T04:40:16.303Z,1002.48
2017-04-13T04:41:16.319Z,1002.41
2017-04-13T04:42:16.339Z,1002.41
2017-04-13T04:43:16.359Z,1002.41
2017-04-13T04:44:16.380Z,1002.37
2017-04-13T04:45:16.398Z,1002.38
2017-04-13T04:46:16.417Z,1002.4
2017-04-13T04:47:16.437Z,1002.43
2017-04-13T04:48:16.456Z,1002.4
2017-04-13T04:49:16.475Z,1002.4
2017-04-13T04:50:16.495Z,1002.36
2017-04-13T04:51:16.516Z,1002.41
2017-04-13T04:52:16.535Z,1002.44
2017-04-13T04:53:16.555Z,1002.45
2017-04-13T04:54:16.575Z,1002.45
2017-04-13T04:55:16.594Z,1002.44
2017-04-13T04:56:16.615Z,1002.45
2017-04-13T04:57:16.633Z,1002.45
2017-04-13T04:58:16.652Z,1002.4
2017-04-13T04:59:16.671Z,1002.5
2017-04-13T05:00:16.690Z,1002.51
2017-04-13T05:01:16.711Z,1002.46
2017-04-13T05:02:16.731Z,1002.51
2017-04-13T05:03:16.752Z,1002.46
2017-04-13T05:04:16.770Z,1002.48
2017-04-13T05:05:16.790Z,1002.49
2017-04-13T05:06:16.813Z,1002.47
2017-04-13T05:07:17.329Z,1002.5
2017-04-13T05:08:16.849Z,1002.56
2017-04-13T05:09:16.868Z,1002.54
2017-04-13T05:10:16.888Z,1002.48
2017-04-13T05:12:16.928Z,1002.55
2017-04-13T05:13:16.947Z,1002.56
2017-04-13T05:14:16.966Z,1002.51
2017-04-13T05:15:16.986Z,1002.57
2017-04-13T05:16:17.009Z,1002.56
2017-04-13T05:17:17.026Z,1002.55
2017-04-13T05:18:17.085Z,1002.57
2017-04-13T05:19:17.065Z,1002.59
2017-04-13T05:20:17.086Z,1002.61
2017-04-13T05:21:17.105Z,1002.56
2017-04-13T05:22:17.125Z,1002.62
2017-04-13T05:23:17.145Z,1002.63
2017-04-13T05:24:17.165Z,1002.61
2017-04-13T05:25:17.185Z,1002.59
2017-04-13T05:26:17.205Z,1002.66
2017-04-13T05:28:17.245Z,1002.65
2017-04-13T05:29:17.265Z,1002.84
2017-04-13T05:30:17.285Z,1002.63
2017-04-13T05:31:17.309Z,1002.9
2017-04-13T05:32:17.326Z,1002.94
2017-04-13T05:33:17.347Z,1002.77
2017-04-13T05:34:17.369Z,1002.68
2017-04-13T05:35:17.390Z,1002.93
2017-04-13T05:36:17.411Z,1002.87
2017-04-13T05:37:17.433Z,1002.75
2017-04-13T05:38:17.454Z,1002.73
2017-04-13T05:39:17.476Z,1003.07
2017-04-13T05:40:17.498Z,1003.18
2017-04-13T05:41:17.521Z,1002.86
2017-04-13T05:42:17.543Z,1003.15
2017-04-13T05:44:17.589Z,1003.05
2017-04-13T05:45:17.613Z,1003.08
2017-04-13T05:46:17.636Z,1003.06
2017-04-13T05:47:17.660Z,1003.14
2017-04-13T05:48:17.684Z,1003.11
2017-04-13T05:49:17.708Z,1003.09
2017-04-13T05:50:17.733Z,1003.35
2017-04-13T05:51:17.757Z,1003.31
2017-04-13T05:52:17.782Z,1003.36
2017-04-13T05:53:17.806Z,1003.41
2017-04-13T05:54:17.833Z,1003.46
2017-04-13T05:55:17.857Z,1003.69
2017-04-13T05:56:17.902Z,1003.85
2017-04-13T05:57:17.909Z,1003.95
2017-04-13T05:58:17.934Z,1004.08
2017-04-13T06:00:17.988Z,1004.22
2017-04-13T06:01:18.065Z,1004.11
2017-04-13T06:02:18.042Z,1004.19
2017-04-13T06:03:18.072Z,1004.33
2017-04-13T06:04:18.098Z,1004.38
2017-04-13T06:05:18.129Z,1004.5
2017-04-13T06:06:18.154Z,1004.46
2017-04-13T06:07:18.182Z,1004.65
2017-04-13T06:08:18.211Z,1004.65
2017-04-13T06:09:18.240Z,1004.67
2017-04-13T06:10:18.269Z,1004.31
2017-04-13T06:11:18.299Z,1004.23
2017-04-13T06:12:18.328Z,1003.56
2017-04-13T06:13:18.358Z,1004.08
2017-04-13T06:15:18.425Z,1004.65
2017-04-13T06:16:18.448Z,1004.9
2017-04-13T06:17:18.477Z,1004.91
2017-04-13T06:18:18.507Z,1004.84
2017-04-13T06:19:18.538Z,1004.84
2017-04-13T06:20:18.567Z,1004.76
2017-04-13T06:21:18.597Z,1004.28
2017-04-13T06:22:18.629Z,1003.66
2017-04-13T06:23:18.660Z,1004.78
2017-04-13T06:24:18.689Z,1004.41
2017-04-13T06:25:18.720Z,1004.76
2017-04-13T06:26:18.751Z,1004.85
2017-04-13T06:27:18.780Z,1004.9
2017-04-13T06:28:18.812Z,1004.64
2017-04-13T06:29:18.843Z,1004.91
2017-04-13T06:30:18.874Z,1004.94
2017-04-13T06:31:18.906Z,1004.29
2017-04-13T06:32:18.937Z,1003.53
2017-04-13T06:33:18.969Z,1004.93
2017-04-13T06:34:18.999Z,1004.86
2017-04-13T06:35:19.031Z,1004.86
2017-04-13T06:36:19.062Z,1004.92
2017-04-13T06:37:19.095Z,1004.93
2017-04-13T06:38:19.125Z,1004.88
2017-04-13T06:39:19.157Z,1004.89
2017-04-13T06:40:19.190Z,1004.96
2017-04-13T06:41:19.222Z,1004.93
2017-04-13T06:42:19.253Z,1004.87
2017-04-13T06:43:19.285Z,1005
2017-04-13T06:44:19.318Z,1004.92
2017-04-13T06:45:19.349Z,1005.03
2017-04-13T06:47:19.415Z,1003.6
2017-04-13T06:48:19.447Z,1005.12
2017-04-13T06:49:19.479Z,1005.01
2017-04-13T06:50:19.512Z,1003.82
2017-04-13T06:51:19.584Z,1003.77
2017-04-13T06:52:19.582Z,1005.01
2017-04-13T06:53:19.609Z,1005.09
2017-04-13T06:54:19.641Z,1003.8
2017-04-13T06:55:19.677Z,1003.74
2017-04-13T06:56:19.705Z,1003.75
2017-04-13T06:57:19.737Z,1005.08
2017-04-13T06:58:19.768Z,1005.02
2017-04-13T06:59:19.801Z,1005.02
2017-04-13T07:00:19.834Z,1004.89
2017-04-13T07:01:19.862Z,1005.06
2017-04-13T07:03:19.925Z,1004.99
2017-04-13T07:04:19.956Z,1003.83
2017-04-13T07:05:19.990Z,1004.92
2017-04-13T07:06:20.021Z,1004.93
2017-04-13T07:07:20.051Z,1004.96
2017-04-13T07:08:20.083Z,1003.75
2017-04-13T07:09:20.116Z,1004.9
2017-04-13T07:10:20.148Z,1004.26
2017-04-13T07:11:20.179Z,1003.64
2017-04-13T07:12:20.213Z,1004.74
2017-04-13T07:13:20.243Z,1004.71
2017-04-13T07:14:20.275Z,1004.57
2017-04-13T07:15:20.306Z,1003.72
2017-04-13T07:16:20.339Z,1003.96
2017-04-13T07:17:20.370Z,1004.69
2017-04-13T07:19:20.433Z,1004.68
2017-04-13T07:20:20.465Z,1003.83
2017-04-13T07:21:20.497Z,1003.79
2017-04-13T07:22:20.529Z,1003.98
2017-04-13T07:23:20.558Z,1004.73
2017-04-13T07:24:20.589Z,1003.82
2017-04-13T07:25:20.726Z,1004.63
2017-04-13T07:26:20.651Z,1004.65
2017-04-13T07:27:20.682Z,1003.78
2017-04-13T07:28:20.715Z,1003.76
2017-04-13T07:29:20.743Z,1003.86
2017-04-13T07:30:20.773Z,1004.7
2017-04-13T07:31:20.805Z,1004.18
2017-04-13T07:32:20.836Z,1004.46
2017-04-13T07:33:20.866Z,1003.81
2017-04-13T07:35:20.927Z,1004.46
2017-04-13T07:36:20.958Z,1003.85
2017-04-13T07:37:20.988Z,1003.82
2017-04-13T07:38:21.019Z,1004.27
2017-04-13T07:39:21.049Z,1004.24
2017-04-13T07:40:21.079Z,1004.63
2017-04-13T07:41:21.109Z,1004.74
2017-04-13T07:42:21.139Z,1003.83
2017-04-13T07:43:21.207Z,1003.85
2017-04-13T07:44:21.197Z,1003.87
2017-04-13T07:45:21.227Z,1004.04
2017-04-13T07:46:21.256Z,1004.59
2017-04-13T07:47:21.285Z,1004.01
2017-04-13T07:48:21.315Z,1004.56
2017-04-13T07:50:21.376Z,1004.44
2017-04-13T07:51:21.401Z,1003.99
2017-04-13T07:52:21.432Z,1003.99
2017-04-13T07:53:21.460Z,1004.06
2017-04-13T07:54:21.489Z,1004.47
2017-04-13T07:55:21.517Z,1003.97
2017-04-13T07:56:21.552Z,1004.07
2017-04-13T07:57:21.576Z,1004
2017-04-13T07:58:21.603Z,1004
2017-04-13T07:59:21.633Z,1003.94
2017-04-13T08:00:21.660Z,1003.97
2017-04-13T08:01:21.691Z,1004.09
2017-04-13T08:02:21.716Z,1004.05
2017-04-13T08:03:21.744Z,1004.01
2017-04-13T08:04:21.772Z,1004.12
2017-04-13T08:05:21.799Z,1004.1
2017-04-13T08:06:21.825Z,1004.05
2017-04-13T08:07:21.852Z,1004.07
2017-04-13T08:08:21.880Z,1004.13
2017-04-13T08:09:21.906Z,1004.03
2017-04-13T08:10:21.932Z,1004.16
2017-04-13T08:11:21.959Z,1004.1
2017-04-13T08:12:21.986Z,1004.07
2017-04-13T08:13:22.011Z,1004.03
2017-04-13T08:14:22.037Z,1004.09
2017-04-13T08:15:22.064Z,1004.06
2017-04-13T08:16:22.089Z,1004.02
2017-04-13T08:17:22.115Z,1004.03
2017-04-13T08:18:22.140Z,1004.08
2017-04-13T08:19:22.166Z,1004.15
2017-04-13T08:20:22.191Z,1004.13
2017-04-13T08:22:22.241Z,1004.09
2017-04-13T08:23:22.267Z,1004.08
2017-04-13T08:24:22.291Z,1004.19
2017-04-13T08:25:22.317Z,1004.29
2017-04-13T08:26:22.341Z,1004.21
2017-04-13T08:27:22.402Z,1004.56
2017-04-13T08:28:22.391Z,1004.65
2017-04-13T08:29:22.417Z,1004.24
2017-04-13T08:30:22.442Z,1004.24
2017-04-13T08:31:22.466Z,1004.26
2017-04-13T08:32:22.492Z,1004.24
2017-04-13T08:33:22.518Z,1004.27
2017-04-13T08:34:22.542Z,1004.28
2017-04-13T08:35:22.567Z,1004.38
2017-04-13T08:36:22.592Z,1004.28
2017-04-13T08:38:22.642Z,1004.32
2017-04-13T08:39:22.668Z,1004.33
2017-04-13T08:40:22.693Z,1004.42
2017-04-13T08:41:22.718Z,1004.29
2017-04-13T08:42:22.743Z,1004.37
2017-04-13T08:43:22.768Z,1004.45
2017-04-13T08:44:22.794Z,1004.42
2017-04-13T08:45:22.820Z,1004.4
2017-04-13T08:46:22.846Z,1004.34
2017-04-13T08:47:22.872Z,1004.25
2017-04-13T08:48:22.898Z,1004.34
2017-04-13T08:49:22.925Z,1004.29
2017-04-13T08:50:22.950Z,1004.35
2017-04-13T08:51:22.976Z,1004.33
2017-04-13T08:52:23.002Z,1004.37
2017-04-13T08:54:23.052Z,1004.43
2017-04-13T08:55:23.078Z,1004.44
2017-04-13T08:56:23.104Z,1004.42
2017-04-13T08:57:23.129Z,1004.43
2017-04-13T08:58:23.154Z,1004.47
2017-04-13T08:59:23.179Z,1004.55
2017-04-13T09:00:23.205Z,1004.44
2017-04-13T09:01:23.229Z,1004.51
2017-04-13T09:02:23.255Z,1004.36
2017-04-13T09:03:23.280Z,1004.48
2017-04-13T09:04:23.305Z,1004.41
2017-04-13T09:05:23.332Z,1004.5
2017-04-13T09:06:23.357Z,1004.6
2017-04-13T09:07:23.382Z,1004.34
2017-04-13T09:08:23.407Z,1004.57
2017-04-13T09:10:23.460Z,1004.55
2017-04-13T09:11:23.485Z,1004.6
2017-04-13T09:12:23.510Z,1004.44
2017-04-13T09:13:23.536Z,1004.43
2017-04-13T09:14:23.562Z,1004.44
2017-04-13T09:15:23.587Z,1004.45
2017-04-13T09:16:23.614Z,1004.4
2017-04-13T09:17:23.640Z,1004.45
2017-04-13T09:18:23.667Z,1004.4
2017-04-13T09:19:23.693Z,1004.35
2017-04-13T09:20:23.721Z,1004.25
2017-04-13T09:21:23.746Z,1004.28
2017-04-13T09:22:23.773Z,1004.27
2017-04-13T09:23:23.799Z,1004.39
2017-04-13T09:25:23.852Z,1004.32
2017-04-13T09:26:23.877Z,1004.34
2017-04-13T09:27:23.903Z,1004.27
2017-04-13T09:28:23.929Z,1004.39
2017-04-13T09:29:23.955Z,1004.35
2017-04-13T09:30:23.981Z,1004.42
2017-04-13T09:31:24.008Z,1004.43
2017-04-13T09:32:24.032Z,1004.44
2017-04-13T09:33:24.056Z,1004.45
2017-04-13T09:34:24.082Z,1004.46
2017-04-13T09:35:24.108Z,1004.41
2017-04-13T09:36:24.132Z,1004.46
2017-04-13T09:37:24.157Z,1004.39
2017-04-13T09:38:24.183Z,1004.35
2017-04-13T09:39:24.208Z,1004.38
2017-04-13T09:40:24.234Z,1004.37
2017-04-13T09:41:24.258Z,1004.33
2017-04-13T09:42:24.284Z,1004.39
2017-04-13T09:43:24.310Z,1004.4
2017-04-13T09:44:24.334Z,1004.43
2017-04-13T09:45:24.359Z,1004.35
2017-04-13T09:46:24.385Z,1004.22
2017-04-13T09:47:24.410Z,1004.32
2017-04-13T09:48:24.435Z,1004.26
2017-04-13T09:49:24.459Z,1004.33
2017-04-13T09:50:24.486Z,1004.28
2017-04-13T09:51:24.510Z,1004.33
2017-04-13T09:52:24.535Z,1004.33
2017-04-13T09:53:24.559Z,1004.34
2017-04-13T09:54:24.585Z,1004.33
2017-04-13T09:55:24.609Z,1004.21
2017-04-13T09:57:24.659Z,1004.39
2017-04-13T09:58:24.685Z,1004.3
2017-04-13T09:59:24.709Z,1004.17
2017-04-13T10:00:24.734Z,1004.24
2017-04-13T10:01:24.760Z,1004.29
2017-04-13T10:02:24.786Z,1004.17
2017-04-13T10:03:24.811Z,1004.33
2017-04-13T10:04:24.835Z,1004.16
2017-04-13T10:05:24.861Z,1004.22
2017-04-13T10:06:24.887Z,1004.2
2017-04-13T10:07:24.911Z,1004.28
2017-04-13T10:08:24.936Z,1004.3
2017-04-13T10:09:24.962Z,1004.11
2017-04-13T10:10:24.985Z,1004.31
2017-04-13T10:11:25.012Z,1004.2
2017-04-13T10:13:25.063Z,1004.17
2017-04-13T10:14:25.088Z,1004.21
2017-04-13T10:15:25.112Z,1004.15
2017-04-13T10:16:25.139Z,1004.12
2017-04-13T10:17:25.163Z,1004.2
2017-04-13T10:18:25.188Z,1004.08
2017-04-13T10:19:25.214Z,1004.23
2017-04-13T10:20:25.240Z,1004.14
2017-04-13T10:21:25.264Z,1004.26
2017-04-13T10:22:25.290Z,1004.19
2017-04-13T10:23:25.315Z,1004.17
2017-04-13T10:24:25.341Z,1004.23
2017-04-13T10:25:25.365Z,1004.26
2017-04-13T10:26:25.391Z,1004.22
2017-04-13T10:27:25.417Z,1004.15
2017-04-13T10:29:25.466Z,1004.18
2017-04-13T10:30:25.491Z,1004.1
2017-04-13T10:31:25.516Z,1004.17
2017-04-13T10:32:25.541Z,1004.25
2017-04-13T10:33:25.566Z,1004.19
2017-04-13T10:34:25.592Z,1004.29
2017-04-13T10:35:25.616Z,1003.94
2017-04-13T10:36:25.641Z,1004.18
2017-04-13T10:37:25.666Z,1004.16
2017-04-13T10:38:25.692Z,1004.09
2017-04-13T10:39:25.716Z,1004.21
2017-04-13T10:40:25.741Z,1004.12
2017-04-13T10:41:25.766Z,1004.13
2017-04-13T10:42:25.793Z,1004.05
2017-04-13T10:43:25.817Z,1004.23
2017-04-13T10:45:25.866Z,1004.22
2017-04-13T10:46:25.892Z,1004.35
2017-04-13T10:47:25.916Z,1004.2
2017-04-13T10:48:25.940Z,1004.2
2017-04-13T10:49:25.965Z,1004.15
2017-04-13T10:50:25.989Z,1004.22
2017-04-13T10:51:26.016Z,1004.13
2017-04-13T10:52:26.039Z,1004.2
2017-04-13T10:53:26.064Z,1004.16
2017-04-13T10:54:26.088Z,1004.19
2017-04-13T10:55:26.113Z,1004.22
2017-04-13T10:56:26.137Z,1004.21
2017-04-13T10:57:26.162Z,1004.2
2017-04-13T10:58:26.186Z,1004.19
2017-04-13T11:00:26.236Z,1004.39
2017-04-13T11:01:26.259Z,1004.27
2017-04-13T11:02:26.283Z,1004.34
2017-04-13T11:03:26.308Z,1004.26
2017-04-13T11:04:26.332Z,1004.3
2017-04-13T11:05:26.355Z,1004.25
2017-04-13T11:06:26.380Z,1004.22
2017-04-13T11:07:26.404Z,1004.28
2017-04-13T11:08:26.427Z,1004.21
2017-04-13T11:09:26.451Z,1004.28
2017-04-13T11:10:26.505Z,1004.24
2017-04-13T11:11:26.500Z,1004.26
2017-04-13T11:12:26.523Z,1004.14
2017-04-13T11:13:26.547Z,1004.26
2017-04-13T11:14:26.571Z,1004.32
2017-04-13T11:15:26.594Z,1004.31
2017-04-13T11:16:26.618Z,1004.23
2017-04-13T11:17:26.641Z,1004.26
2017-04-13T11:18:26.666Z,1004.18
2017-04-13T11:19:26.689Z,1004.18
2017-04-13T11:20:26.713Z,1004.24
2017-04-13T11:21:26.738Z,1004.15
2017-04-13T11:22:26.762Z,1004.14
2017-04-13T11:23:26.785Z,1004.16
2017-04-13T11:24:26.809Z,1004.2
2017-04-13T11:25:26.833Z,1004.1
2017-04-13T11:26:26.858Z,1004.19
2017-04-13T11:27:26.881Z,1004.18
2017-04-13T11:28:26.905Z,1004.23
2017-04-13T11:29:26.929Z,1004.26
2017-04-13T11:30:26.955Z,1004.18
2017-04-13T11:32:27.001Z,1004.22
2017-04-13T11:33:27.025Z,1004.22
2017-04-13T11:34:27.050Z,1004.29
2017-04-13T11:35:27.073Z,1004.3
2017-04-13T11:36:27.099Z,1004.26
2017-04-13T11:37:27.123Z,1004.21
2017-04-13T11:38:27.145Z,1004.26
2017-04-13T11:39:27.171Z,1004.29
2017-04-13T11:40:27.196Z,1004.28
2017-04-13T11:41:27.220Z,1004.19
2017-04-13T11:42:27.246Z,1004.33
2017-04-13T11:43:27.267Z,1004.37
2017-04-13T11:44:27.292Z,1004.32
2017-04-13T11:45:27.318Z,1004.27
2017-04-13T11:46:27.341Z,1004.28
2017-04-13T11:48:27.396Z,1004.36
2017-04-13T11:49:27.414Z,1004.48
2017-04-13T11:50:27.440Z,1004.42
2017-04-13T11:51:27.464Z,1004.38
2017-04-13T11:52:27.488Z,1004.56
2017-04-13T11:53:27.512Z,1004.52
2017-04-13T11:54:27.537Z,1004.32
2017-04-13T11:55:27.562Z,1004.37
2017-04-13T11:56:27.586Z,1004.28
2017-04-13T11:57:27.611Z,1004.35
2017-04-13T11:58:27.635Z,1004.29
2017-04-13T11:59:27.660Z,1004.36
2017-04-13T12:00:27.684Z,1004.29
2017-04-13T12:01:27.709Z,1004.39
2017-04-13T12:02:27.733Z,1004.23
2017-04-13T12:04:27.781Z,1004.29
2017-04-13T12:05:27.805Z,1004.3
2017-04-13T12:06:27.830Z,1004.37
2017-04-13T12:07:27.853Z,1004.31
2017-04-13T12:08:27.976Z,1004.38
2017-04-13T12:09:27.902Z,1004.39
2017-04-13T12:10:27.926Z,1004.38
2017-04-13T12:11:27.949Z,1004.35
2017-04-13T12:12:27.973Z,1004.34
2017-04-13T12:13:27.997Z,1004.38
2017-04-13T12:14:28.020Z,1004.38
2017-04-13T12:15:28.044Z,1004.32
2017-04-13T12:16:28.068Z,1004.39
2017-04-13T12:17:28.092Z,1004.31
2017-04-13T12:18:28.115Z,1004.48
2017-04-13T12:20:28.164Z,1004.48
2017-04-13T12:21:28.187Z,1004.55
2017-04-13T12:22:28.210Z,1004.51
2017-04-13T12:23:28.234Z,1004.54
2017-04-13T12:24:28.258Z,1004.51
2017-04-13T12:25:28.280Z,1004.6
2017-04-13T12:26:28.304Z,1004.54
2017-04-13T12:27:28.328Z,1004.58
2017-04-13T12:28:28.352Z,1004.53
2017-04-13T12:29:28.374Z,1004.62
2017-04-13T12:30:28.397Z,1004.64
2017-04-13T12:31:28.421Z,1004.57
2017-04-13T12:32:28.444Z,1004.63
2017-04-13T12:33:28.468Z,1004.6
2017-04-13T12:35:28.515Z,1004.6
2017-04-13T12:36:28.537Z,1004.59
2017-04-13T12:37:28.562Z,1004.59
2017-04-13T12:38:28.584Z,1004.61
2017-04-13T12:39:28.609Z,1004.63
2017-04-13T12:40:28.631Z,1004.61
2017-04-13T12:41:28.654Z,1004.62
2017-04-13T12:42:28.677Z,1004.64
2017-04-13T12:43:28.700Z,1004.66
2017-04-13T12:44:29.025Z,1004.57
2017-04-13T12:45:28.747Z,1004.6
2017-04-13T12:46:28.772Z,1004.69
2017-04-13T12:47:28.794Z,1004.81
2017-04-13T12:48:28.817Z,1004.63